Ocean Falls, Canada
Current Conditions -  °F | °C
As of 11:41 AM on Thursday 30 Oct 2014 (Local Time) from CBBC Reporting Station
Light Rain Light Rain  
Wind Chill: 52°   Ceiling: 2600
Heat Index: 52°   Visibility: 5mi
Dew Point: 50°   Wind: 14mph
Humidity: 94%   Direction: 190°S
Pressure: 29.59"   Gusts: 23mph
Location:  52.35°N, 127.7°W
Report Text: CBBC 301841Z AUTO 19012G20KT 5SM -RA BR SCT011 SCT018 BKN026 OVC041 11/10 A2959 RMK PRESRR SLP020
Loading
Personal Weather Stations






























Interactive Weather Map
Tropical Storm Tracking
New forecast layout! Learn more

10-Day Weather Forecast

Advertisements
Track Severe Weather on mobile